Cheyenne — 9HAK5 — position and weather

sailwx.info

Track history (hours):
 
Tides and Currents Weather Stations Pressure Air Temp Water Temp Dewpoint Dewpoint Depression Visibility Wind Speed Wind Dir Waves Ship Positions

Cheyenne

Last reported at 2014-Sep-03 20:03 UTC. Time now 2014-Sep-17 01:36 UTC.
Position N 44°18' E 035°25'.
Warning: this ship's position is 13 days out of date.

Length 133 m; draft 3.8 m.

Type: Cargo ship. MMSI: 249607000.

Date/timePositionNaut miles runAvg speedWind from/ knotsBaromVisibWave heightAir tempDewpointWater temp
2014-Sep-03 20:03N 44°18' E 035°25'26 7.0
2014-Sep-03 16:24N 44°03' E 034°56'6 7.2
2014-Sep-03 15:33N 43°60' E 034°49'7 7.2
2014-Sep-03 14:33N 43°56' E 034°40'7 7.2
2014-Sep-03 13:33N 43°52' E 034°32'299 7.8
2014-Sep-01 23:08N 41°01' E 028°60'5 6.9
2014-Sep-01 22:27N 40°57' E 028°58'2 2.3
2014-Sep-01 21:24N 40°59' E 028°56'0 0.0
2014-Sep-01 15:28N 40°58' E 028°56'0 0.0
2014-Sep-01 13:04N 40°58' E 028°56'0 0.1
2014-Sep-01 12:28N 40°59' E 028°56'0 0.0
2014-Sep-01 10:22N 40°59' E 028°56'0 0.0
2014-Sep-01 09:15N 40°59' E 028°56'0 0.1
2014-Sep-01 08:28N 40°59' E 028°56'0 0.0
2014-Sep-01 07:33N 40°59' E 028°56'0 0.0
2014-Sep-01 06:33N 40°59' E 028°56'0 0.1
2014-Sep-01 05:17N 40°58' E 028°56'3 3.8
2014-Sep-01 04:33N 40°56' E 028°57'9 7.7
2014-Sep-01 03:24N 40°51' E 028°48'  
2014-Aug-26 05:16N 36°36' E 027°32'  
Track history (hours):
 
Tides and Currents Weather Stations Pressure Air Temp Water Temp Dewpoint Dewpoint Depression Visibility Wind Speed Wind Dir Waves Ship Positions

Cheyenne

Last reported at 2014-Sep-03 20:03 UTC. Time now 2014-Sep-17 01:36 UTC.
Position N 44°18' E 035°25'.
Warning: this ship's position is 13 days out of date.

Length 133 m; draft 3.8 m.

Type: Cargo ship. MMSI: 249607000.

Date/timePositionNaut miles runAvg speedWind from/ knotsBaromVisibWave heightAir tempDewpointWater temp
2014-Sep-03 20:03N 44°18' E 035°25'26 7.0
2014-Sep-03 16:24N 44°03' E 034°56'6 7.2
2014-Sep-03 15:33N 43°60' E 034°49'7 7.2
2014-Sep-03 14:33N 43°56' E 034°40'7 7.2
2014-Sep-03 13:33N 43°52' E 034°32'299 7.8
2014-Sep-01 23:08N 41°01' E 028°60'5 6.9
2014-Sep-01 22:27N 40°57' E 028°58'2 2.3
2014-Sep-01 21:24N 40°59' E 028°56'0 0.0
2014-Sep-01 15:28N 40°58' E 028°56'0 0.0
2014-Sep-01 13:04N 40°58' E 028°56'0 0.1
2014-Sep-01 12:28N 40°59' E 028°56'0 0.0
2014-Sep-01 10:22N 40°59' E 028°56'0 0.0
2014-Sep-01 09:15N 40°59' E 028°56'0 0.1
2014-Sep-01 08:28N 40°59' E 028°56'0 0.0
2014-Sep-01 07:33N 40°59' E 028°56'0 0.0
2014-Sep-01 06:33N 40°59' E 028°56'0 0.1
2014-Sep-01 05:17N 40°58' E 028°56'3 3.8
2014-Sep-01 04:33N 40°56' E 028°57'9 7.7
2014-Sep-01 03:24N 40°51' E 028°48'  
2014-Aug-26 05:16N 36°36' E 027°32'  

Dump ship's entire track history